Time;durP1;ratioP1;P1;durP2;ratioP2;P2;SDS_P1;SDS_P2;PMS_P1;PMS_P2;Temp;Humidity;BMP_temperature;BMP_pressure;BME280_temperature;BME280_humidity;BME280_pressure;Samples;Min_cycle;Max_cycle;Signal;HPM_P1;HPM_P2
2023/11/01 00:00:21;;;;;;;;;;;;;;;12.44;100.00;99286.44;5033855;28;847;-58
2023/11/01 00:02:48;;;;;;;;;;;;;;;12.48;100.00;99283.56;5033788;28;739;-58
2023/11/01 00:05:15;;;;;;;;;;;;;;;12.49;100.00;99285.16;5033694;28;802;-59
2023/11/01 00:07:42;;;;;;;;;;;;;;;12.50;100.00;99274.84;5033638;28;889;-58
2023/11/01 00:10:08;;;;;;;;;;;;;;;12.48;100.00;99283.56;5033572;28;849;-58
2023/11/01 00:12:35;;;;;;;;;;;;;;;12.48;100.00;99286.34;5033594;28;876;-58
2023/11/01 00:15:01;;;;;;;;;;;;;;;12.46;100.00;99283.25;5033552;28;889;-58
2023/11/01 00:17:28;;;;;;;;;;;;;;;12.43;100.00;99284.88;5033501;28;1933;-58
2023/11/01 00:19:55;;;;;;;;;;;;;;;12.44;100.00;99294.75;5033645;28;892;-58
2023/11/01 00:22:22;;;;;;;;;;;;;;;12.48;100.00;99299.44;5033211;28;1450;-58
2023/11/01 00:24:48;;;;;;;;;;;;;;;12.51;100.00;99306.91;5033186;28;992;-59
2023/11/01 00:27:15;;;;;;;;;;;;;;;12.56;100.00;99293.31;5033558;28;814;-59
2023/11/01 00:29:41;;;;;;;;;;;;;;;12.60;100.00;99291.25;5033308;28;895;-58
2023/11/01 00:32:08;;;;;;;;;;;;;;;12.67;100.00;99309.72;5033249;28;870;-59
2023/11/01 00:34:34;;;;;;;;;;;;;;;12.70;100.00;99294.25;5033151;28;870;-58
2023/11/01 00:37:01;;;;;;;;;;;;;;;12.70;100.00;99288.69;5033125;28;1910;-59
2023/11/01 00:39:28;;;;;;;;;;;;;;;12.70;100.00;99295.00;5033320;28;870;-58
2023/11/01 00:41:55;;;;;;;;;;;;;;;12.69;100.00;99301.75;5033104;28;867;-58
2023/11/01 00:44:22;;;;;;;;;;;;;;;12.70;100.00;99294.25;5015500;28;1400;-58
2023/11/01 00:46:50;;;;;;;;;;;;;;;12.68;100.00;99296.66;5033173;28;874;-58
2023/11/01 00:49:16;;;;;;;;;;;;;;;12.65;100.00;99299.06;5033143;28;854;-58
2023/11/01 00:51:43;;;;;;;;;;;;;;;12.69;100.00;99298.19;5033040;28;853;-59
2023/11/01 00:54:09;;;;;;;;;;;;;;;12.70;100.00;99302.56;5032806;28;1317;-58
2023/11/01 00:56:36;;;;;;;;;;;;;;;12.67;100.00;99293.06;5032649;28;1943;-58
2023/11/01 00:59:03;;;;;;;;;;;;;;;12.66;100.00;99297.06;5032809;28;850;-58
2023/11/01 01:01:29;;;;;;;;;;;;;;;12.68;100.00;99302.19;5032844;28;926;-58
2023/11/01 01:03:56;;;;;;;;;;;;;;;12.66;100.00;99294.31;5032526;28;911;-58
2023/11/01 01:06:22;;;;;;;;;;;;;;;12.71;100.00;99298.56;5032418;28;857;-58
2023/11/01 01:08:49;;;;;;;;;;;;;;;12.74;100.00;99297.69;5032729;28;815;-58
2023/11/01 01:11:17;;;;;;;;;;;;;;;12.76;100.00;99292.50;5032461;28;881;-58
2023/11/01 01:13:44;;;;;;;;;;;;;;;12.82;100.00;99282.47;5032336;28;879;-58
2023/11/01 01:16:10;;;;;;;;;;;;;;;12.92;100.00;99278.66;5032327;28;1977;-58
2023/11/01 01:18:38;;;;;;;;;;;;;;;12.96;100.00;99296.00;5032195;28;946;-58
2023/11/01 01:21:05;;;;;;;;;;;;;;;12.97;100.00;99282.91;5032233;28;1178;-59
2023/11/01 01:23:31;;;;;;;;;;;;;;;13.07;100.00;99287.44;5032216;28;877;-59
2023/11/01 01:25:58;;;;;;;;;;;;;;;13.13;100.00;99293.25;5032205;28;914;-58
2023/11/01 01:28:24;;;;;;;;;;;;;;;13.17;100.00;99286.41;5032208;28;810;-58
2023/11/01 01:30:51;;;;;;;;;;;;;;;13.27;100.00;99281.81;5032213;28;894;-58
2023/11/01 01:33:18;;;;;;;;;;;;;;;13.37;100.00;99288.34;5032075;28;877;-58
2023/11/01 01:35:44;;;;;;;;;;;;;;;13.52;100.00;99278.44;5032017;28;917;-58
2023/11/01 01:38:11;;;;;;;;;;;;;;;13.67;100.00;99279.63;5031903;28;1973;-58
2023/11/01 01:40:37;;;;;;;;;;;;;;;13.82;100.00;99280.03;5031969;28;886;-58
2023/11/01 01:43:23;;;;;;;;;;;;;;;13.89;100.00;99276.31;5031991;28;992;-58
2023/11/01 01:45:54;;;;;;;;;;;;;;;13.96;100.00;99278.13;5031861;28;886;-58
2023/11/01 01:48:22;;;;;;;;;;;;;;;13.95;100.00;99280.09;5031979;28;815;-58
2023/11/01 01:50:48;;;;;;;;;;;;;;;13.89;100.00;99291.00;5031751;28;966;-58
2023/11/01 01:53:15;;;;;;;;;;;;;;;13.83;100.00;99292.72;5031916;28;866;-58
2023/11/01 01:55:43;;;;;;;;;;;;;;;13.78;100.00;99273.81;5031741;28;880;-58
2023/11/01 01:58:10;;;;;;;;;;;;;;;13.72;100.00;99266.44;5031813;28;1973;-58
2023/11/01 02:00:36;;;;;;;;;;;;;;;13.68;100.00;99250.66;5014035;28;994;-58
2023/11/01 02:03:03;;;;;;;;;;;;;;;13.72;100.00;99255.34;5031779;28;877;-58
2023/11/01 02:05:30;;;;;;;;;;;;;;;13.73;100.00;99243.03;5031702;28;936;-58
2023/11/01 02:07:57;;;;;;;;;;;;;;;13.69;100.00;99271.66;5018190;28;882;-58
2023/11/01 02:10:23;;;;;;;;;;;;;;;13.66;100.00;99291.97;5035888;28;833;-58
2023/11/01 02:12:51;;;;;;;;;;;;;;;13.69;100.00;99301.44;5035740;28;917;-58
2023/11/01 02:15:18;;;;;;;;;;;;;;;13.76;100.00;99295.72;5035822;28;885;-58
2023/11/01 02:17:44;;;;;;;;;;;;;;;13.77;100.00;99283.38;5035637;28;1946;-58
2023/11/01 02:20:11;;;;;;;;;;;;;;;13.75;100.00;99287.81;5035826;28;898;-58
2023/11/01 02:22:38;;;;;;;;;;;;;;;13.74;100.00;99289.81;5035324;28;1222;-58
2023/11/01 02:25:05;;;;;;;;;;;;;;;13.72;100.00;99297.00;5035675;28;874;-58
2023/11/01 02:27:32;;;;;;;;;;;;;;;13.68;100.00;99294.31;5035543;28;858;-58
2023/11/01 02:29:58;;;;;;;;;;;;;;;13.65;100.00;99297.97;5035524;28;814;-58
2023/11/01 02:32:27;;;;;;;;;;;;;;;13.63;100.00;99315.06;5035437;28;838;-58
2023/11/01 02:34:54;;;;;;;;;;;;;;;13.62;100.00;99324.59;5035219;28;934;-58
2023/11/01 02:37:21;;;;;;;;;;;;;;;13.64;100.00;99324.19;5035326;28;1910;-58
2023/11/01 02:39:48;;;;;;;;;;;;;;;13.71;100.00;99328.78;5035510;28;859;-58
2023/11/01 02:42:13;;;;;;;;;;;;;;;13.81;100.00;99336.84;5035297;28;827;-58
2023/11/01 02:44:40;;;;;;;;;;;;;;;13.89;100.00;99331.88;5035205;28;826;-58
2023/11/01 02:47:07;;;;;;;;;;;;;;;13.89;100.00;99318.00;5035511;28;815;-58
2023/11/01 02:49:34;;;;;;;;;;;;;;;13.88;100.00;99299.75;5035130;28;865;-58
2023/11/01 02:52:00;;;;;;;;;;;;;;;13.92;100.00;99291.34;5035091;28;874;-58
2023/11/01 02:54:27;;;;;;;;;;;;;;;13.86;100.00;99289.06;5035168;28;841;-58
2023/11/01 02:56:56;;;;;;;;;;;;;;;13.77;100.00;99297.25;5034981;28;1886;-58
2023/11/01 02:59:23;;;;;;;;;;;;;;;13.65;100.00;99295.97;5034965;28;842;-58
2023/11/01 03:01:50;;;;;;;;;;;;;;;13.55;100.00;99302.59;5034915;28;806;-58
2023/11/01 03:04:16;;;;;;;;;;;;;;;13.42;100.00;99310.03;5034647;28;915;-58
2023/11/01 03:06:43;;;;;;;;;;;;;;;13.31;100.00;99306.72;5034859;28;869;-58
2023/11/01 03:09:09;;;;;;;;;;;;;;;13.25;100.00;99309.25;5034688;28;922;-58
2023/11/01 03:11:38;;;;;;;;;;;;;;;13.18;100.00;99312.16;5034977;28;827;-58
2023/11/01 03:14:05;;;;;;;;;;;;;;;13.15;100.00;99316.59;5034784;28;881;-58
2023/11/01 03:16:34;;;;;;;;;;;;;;;13.13;100.00;99293.25;5034394;28;1949;-58
2023/11/01 03:19:00;;;;;;;;;;;;;;;13.15;100.00;99294.38;5017191;28;923;-58
2023/11/01 03:21:27;;;;;;;;;;;;;;;13.21;100.00;99291.88;5034477;28;1196;-58
2023/11/01 03:23:53;;;;;;;;;;;;;;;13.24;100.00;99291.78;5034469;28;823;-58
2023/11/01 03:26:20;;;;;;;;;;;;;;;13.26;100.00;99314.34;5034514;28;818;-58
2023/11/01 03:28:47;;;;;;;;;;;;;;;13.25;100.00;99317.56;5016614;28;1194;-58
2023/11/01 03:31:18;;;;;;;;;;;;;;;13.21;100.00;99303.75;5034442;28;807;-59
2023/11/01 03:33:46;;;;;;;;;;;;;;;13.19;100.00;99306.19;5034797;28;858;-58
2023/11/01 03:36:13;;;;;;;;;;;;;;;13.12;100.00;99325.78;5034516;28;1964;-59
2023/11/01 03:38:40;;;;;;;;;;;;;;;13.08;100.00;99327.84;5034400;28;1051;-59
2023/11/01 03:41:07;;;;;;;;;;;;;;;13.04;100.00;99327.16;5016805;28;957;-59
2023/11/01 03:43:34;;;;;;;;;;;;;;;13.02;100.00;99330.34;5016508;28;1632;-58
2023/11/01 03:46:01;;;;;;;;;;;;;;;13.00;100.00;99343.88;5034370;28;885;-58
2023/11/01 03:48:27;;;;;;;;;;;;;;;12.96;100.00;99337.63;5034226;28;1217;-58
2023/11/01 03:50:54;;;;;;;;;;;;;;;12.85;100.00;99345.41;5034365;28;841;-58
2023/11/01 03:53:21;;;;;;;;;;;;;;;12.84;100.00;99339.06;5034498;28;893;-59
2023/11/01 03:55:48;;;;;;;;;;;;;;;12.82;100.00;99337.91;5033918;28;1263;-58
2023/11/01 03:58:14;;;;;;;;;;;;;;;12.77;100.00;99343.97;5033876;28;1906;-58
2023/11/01 04:00:41;;;;;;;;;;;;;;;12.73;100.00;99332.19;5032538;28;898;-58
2023/11/01 04:03:07;;;;;;;;;;;;;;;12.74;100.00;99328.19;5015976;28;878;-59
2023/11/01 04:05:35;;;;;;;;;;;;;;;12.74;100.00;99334.53;5033781;28;873;-58
2023/11/01 04:08:02;;;;;;;;;;;;;;;12.72;100.00;99341.72;5016113;28;850;-59
2023/11/01 04:10:28;;;;;;;;;;;;;;;12.70;100.00;99344.16;5033675;28;864;-58
2023/11/01 04:12:56;;;;;;;;;;;;;;;12.72;100.00;99331.41;5033563;28;963;-58
2023/11/01 04:15:23;;;;;;;;;;;;;;;12.78;100.00;99335.25;5033504;28;854;-59
2023/11/01 04:17:51;;;;;;;;;;;;;;;12.79;100.00;99336.78;5033329;28;1890;-58
2023/11/01 04:20:18;;;;;;;;;;;;;;;12.82;100.00;99333.19;5033940;28;917;-58
2023/11/01 04:22:45;;;;;;;;;;;;;;;12.88;100.00;99327.88;5033247;28;1241;-59
2023/11/01 04:25:11;;;;;;;;;;;;;;;12.97;100.00;99335.63;5033377;28;1287;-59
2023/11/01 04:27:41;;;;;;;;;;;;;;;13.10;100.00;99328.22;5033508;28;822;-59
2023/11/01 04:30:09;;;;;;;;;;;;;;;13.23;100.00;99342.97;5015658;28;908;-59
2023/11/01 04:32:39;;;;;;;;;;;;;;;13.30;100.00;99336.50;5033511;28;874;-58
2023/11/01 04:35:09;;;;;;;;;;;;;;;13.26;100.00;99333.00;5033225;28;926;-59
2023/11/01 04:37:37;;;;;;;;;;;;;;;13.19;100.00;99339.50;5033052;28;1914;-59
2023/11/01 04:40:06;;;;;;;;;;;;;;;13.06;100.00;99341.38;5033247;28;829;-58
2023/11/01 04:42:32;;;;;;;;;;;;;;;12.98;100.00;99348.28;5032848;28;1052;-59
2023/11/01 04:44:59;;;;;;;;;;;;;;;12.97;100.00;99352.25;5033069;28;819;-58
2023/11/01 04:47:26;;;;;;;;;;;;;;;13.12;100.00;99359.09;5032888;28;874;-58
2023/11/01 04:49:52;;;;;;;;;;;;;;;13.21;100.00;99364.03;5032839;28;961;-59
2023/11/01 04:52:19;;;;;;;;;;;;;;;13.16;100.00;99370.09;5032880;28;810;-58
2023/11/01 04:54:45;;;;;;;;;;;;;;;13.10;100.00;99369.81;5032882;28;897;-58
2023/11/01 04:57:12;;;;;;;;;;;;;;;13.07;100.00;99365.91;5032705;28;1946;-58
2023/11/01 04:59:39;;;;;;;;;;;;;;;13.11;100.00;99365.81;5032755;28;854;-58
2023/11/01 05:02:05;;;;;;;;;;;;;;;13.10;100.00;99367.06;5032679;28;916;-58
2023/11/01 05:04:32;;;;;;;;;;;;;;;13.08;100.00;99380.56;5032503;28;913;-59
2023/11/01 05:06:58;;;;;;;;;;;;;;;13.13;100.00;99384.81;5032935;28;870;-59
2023/11/01 05:09:25;;;;;;;;;;;;;;;13.15;100.00;99391.50;5032571;28;858;-59
2023/11/01 05:11:52;;;;;;;;;;;;;;;13.21;100.00;99392.56;5032721;28;992;-58
2023/11/01 05:14:18;;;;;;;;;;;;;;;13.24;100.00;99396.47;5032605;28;835;-58
2023/11/01 05:16:46;;;;;;;;;;;;;;;13.28;100.00;99406.31;5032310;28;1886;-59
2023/11/01 05:19:12;;;;;;;;;;;;;;;13.29;100.00;99412.63;5032270;28;973;-59
2023/11/01 05:21:42;;;;;;;;;;;;;;;13.27;100.00;99406.69;5032351;28;1359;-58
2023/11/01 05:24:08;;;;;;;;;;;;;;;13.27;100.00;99415.03;5032300;28;909;-59
2023/11/01 05:26:35;;;;;;;;;;;;;;;13.27;100.00;99415.81;5032533;28;823;-59
2023/11/01 05:29:03;;;;;;;;;;;;;;;13.33;100.00;99412.56;5032155;28;934;-59
2023/11/01 05:31:29;;;;;;;;;;;;;;;13.37;100.00;99424.34;5031929;28;925;-59
2023/11/01 05:33:57;;;;;;;;;;;;;;;13.37;100.00;99433.47;5032086;28;929;-58
2023/11/01 05:36:23;;;;;;;;;;;;;;;13.41;100.00;99433.41;5031906;28;1939;-58
2023/11/01 05:38:50;;;;;;;;;;;;;;;13.50;100.00;99436.34;5032082;28;883;-58
2023/11/01 05:41:17;;;;;;;;;;;;;;;13.63;100.00;99434.47;5031096;28;1602;-58
2023/11/01 05:43:43;;;;;;;;;;;;;;;13.77;100.00;99433.34;5032101;28;835;-58
2023/11/01 05:46:10;;;;;;;;;;;;;;;13.91;100.00;99443.31;5031885;28;883;-59
2023/11/01 05:48:36;;;;;;;;;;;;;;;14.00;100.00;99437.97;5032122;28;850;-58
2023/11/01 05:51:04;;;;;;;;;;;;;;;14.11;100.00;99445.25;5031945;28;846;-59
2023/11/01 05:53:34;;;;;;;;;;;;;;;14.24;100.00;99451.66;5032147;28;880;-58
2023/11/01 05:56:01;;;;;;;;;;;;;;;14.43;100.00;99442.41;5031783;28;1955;-58
2023/11/01 05:58:28;;;;;;;;;;;;;;;14.63;100.00;99449.88;5031858;28;815;-59
2023/11/01 06:00:55;;;;;;;;;;;;;;;14.80;100.00;99450.59;5031685;28;1231;-59
2023/11/01 06:03:25;;;;;;;;;;;;;;;14.89;100.00;99439.59;5031811;28;881;-58
2023/11/01 06:05:57;;;;;;;;;;;;;;;14.97;100.00;99448.53;5031907;28;845;-58
2023/11/01 06:08:32;;;;;;;;;;;;;;;14.97;100.00;99443.75;5031642;28;972;-58
2023/11/01 06:10:58;;;;;;;;;;;;;;;14.98;100.00;99447.31;5014281;28;961;-59
2023/11/01 06:13:24;;;;;;;;;;;;;;;14.96;100.00;99452.56;5031759;28;806;-58
2023/11/01 06:15:51;;;;;;;;;;;;;;;14.90;100.00;99444.75;5031818;28;846;-59
2023/11/01 06:18:18;;;;;;;;;;;;;;;14.86;100.00;99448.84;5031520;28;1886;-58
2023/11/01 06:20:44;;;;;;;;;;;;;;;14.81;100.00;99444.63;5013988;28;1093;-59
2023/11/01 06:23:10;;;;;;;;;;;;;;;14.80;100.00;99440.25;5031629;28;1426;-58
2023/11/01 06:25:37;;;;;;;;;;;;;;;14.86;100.00;99437.72;5032031;28;830;-58
2023/11/01 06:28:04;;;;;;;;;;;;;;;14.97;100.00;99448.53;5031906;28;819;-58
2023/11/01 06:30:30;;;;;;;;;;;;;;;15.14;100.00;99443.69;5031980;28;882;-58
2023/11/01 06:32:57;;;;;;;;;;;;;;;15.40;100.00;99455.63;5031649;28;1227;-58
2023/11/01 06:35:23;;;;;;;;;;;;;;;15.69;100.00;99459.09;5031555;28;803;-58
2023/11/01 06:37:50;;;;;;;;;;;;;;;15.93;100.00;99453.22;5031325;28;1973;-58
2023/11/01 06:40:17;;;;;;;;;;;;;;;16.17;100.00;99447.25;5031526;28;900;-58
2023/11/01 06:42:43;;;;;;;;;;;;;;;16.35;100.00;99449.47;5031259;28;928;-59
2023/11/01 06:45:11;;;;;;;;;;;;;;;16.53;100.00;99457.97;5031420;28;814;-59
2023/11/01 06:47:38;;;;;;;;;;;;;;;16.66;100.00;99455.16;5031359;28;902;-59
2023/11/01 06:50:04;;;;;;;;;;;;;;;16.80;100.00;99454.69;5031367;28;783;-59
2023/11/01 06:52:32;;;;;;;;;;;;;;;16.77;100.00;99451.97;5033008;28;831;-58
2023/11/01 06:54:57;;;;;;;;;;;;;;;16.73;100.00;99452.13;5034968;28;866;-59
2023/11/01 06:57:24;;;;;;;;;;;;;;;17.48;100.00;99463.31;5034973;28;1951;-58
2023/11/01 06:59:51;;;;;;;;;;;;;;;17.87;100.00;99460.25;5034910;28;885;-58
2023/11/01 07:02:18;;;;;;;;;;;;;;;18.26;100.00;99453.03;5034969;28;842;-58
2023/11/01 07:04:45;;;;;;;;;;;;;;;18.77;100.00;99446.06;5034767;28;916;-58
2023/11/01 07:07:12;;;;;;;;;;;;;;;18.73;100.00;99459.44;5034818;28;892;-58
2023/11/01 07:09:38;;;;;;;;;;;;;;;18.72;100.00;99463.50;5034966;28;961;-58
2023/11/01 07:12:05;;;;;;;;;;;;;;;18.41;100.00;99469.97;5034801;28;799;-58
2023/11/01 07:14:37;;;;;;;;;;;;;;;17.89;100.00;99461.34;5034678;28;869;-58
2023/11/01 07:17:04;;;;;;;;;;;;;;;17.78;100.00;99474.16;5001397;28;1882;-58
2023/11/01 07:19:31;;;;;;;;;;;;;;;17.63;100.00;99468.38;5034658;28;954;-58
2023/11/01 07:21:57;;;;;;;;;;;;;;;17.64;100.00;99476.25;5034423;28;1430;-58
2023/11/01 07:24:24;;;;;;;;;;;;;;;17.78;100.00;99479.75;5035414;28;799;-58
2023/11/01 07:26:51;;;;;;;;;;;;;;;18.05;100.00;99482.69;5034680;28;991;-58
2023/11/01 07:29:17;;;;;;;;;;;;;;;18.96;100.00;99480.44;5034299;28;1314;-58
2023/11/01 07:31:45;;;;;;;;;;;;;;;19.47;100.00;99481.75;5034391;28;847;-58
2023/11/01 07:34:13;;;;;;;;;;;;;;;19.26;100.00;99489.91;5034503;28;1243;-58
2023/11/01 07:36:39;;;;;;;;;;;;;;;18.94;100.00;99496.94;5016751;28;1898;-58
2023/11/01 07:39:08;;;;;;;;;;;;;;;18.89;100.00;99505.97;5034249;28;867;-58
2023/11/01 07:41:36;;;;;;;;;;;;;;;18.86;100.00;99518.09;5034336;28;906;-58
2023/11/01 07:44:03;;;;;;;;;;;;;;;18.92;100.00;99500.19;5034130;28;1622;-58
2023/11/01 07:46:29;;;;;;;;;;;;;;;19.02;100.00;99509.38;5034282;28;822;-58
2023/11/01 07:48:55;;;;;;;;;;;;;;;19.15;100.00;99501.59;5034294;28;811;-58
2023/11/01 07:51:34;;;;;;;;;;;;;;;19.23;100.00;99513.25;5034475;28;826;-58
2023/11/01 07:54:00;;;;;;;;;;;;;;;19.15;100.00;99517.63;5033922;28;950;-58
2023/11/01 07:56:26;;;;;;;;;;;;;;;19.04;100.00;99528.53;5033902;28;1886;-58
2023/11/01 07:58:53;;;;;;;;;;;;;;;18.81;100.00;99527.91;5033730;28;886;-58
2023/11/01 08:01:20;;;;;;;;;;;;;;;18.64;100.00;99521.78;5033905;28;858;-58
2023/11/01 08:03:46;;;;;;;;;;;;;;;18.52;100.00;99523.50;5033154;28;846;-58
2023/11/01 08:06:13;;;;;;;;;;;;;;;18.50;100.00;99523.19;5033722;28;894;-58
2023/11/01 08:08:40;;;;;;;;;;;;;;;18.60;100.00;99523.97;5033740;28;930;-58
2023/11/01 08:11:07;;;;;;;;;;;;;;;18.82;100.00;99520.28;5033638;28;898;-58
2023/11/01 08:13:33;;;;;;;;;;;;;;;19.05;100.00;99525.25;5033490;28;894;-58
2023/11/01 08:15:59;;;;;;;;;;;;;;;19.27;100.00;99524.31;5033680;28;873;-58
2023/11/01 08:18:28;;;;;;;;;;;;;;;19.49;100.00;99518.50;5033500;28;1890;-58
2023/11/01 08:20:55;;;;;;;;;;;;;;;19.58;100.00;99529.69;5033753;28;1273;-58
2023/11/01 08:23:21;;;;;;;;;;;;;;;19.49;100.00;99527.69;5033106;28;1375;-58
2023/11/01 08:25:50;;;;;;;;;;;;;;;19.48;100.00;99534.56;5033414;28;849;-58
2023/11/01 08:28:17;;;;;;;;;;;;;;;19.62;100.00;99524.69;5033102;28;914;-58
2023/11/01 08:30:44;;;;;;;;;;;;;;;20.30;100.00;99523.50;5033226;28;954;-58
2023/11/01 08:33:10;;;;;;;;;;;;;;;20.72;100.00;99525.47;5033321;28;877;-58
2023/11/01 08:35:38;;;;;;;;;;;;;;;20.67;100.00;99520.50;5033169;28;882;-58
2023/11/01 08:38:08;;;;;;;;;;;;;;;20.54;100.00;99521.47;5033038;28;1977;-57
2023/11/01 08:40:35;;;;;;;;;;;;;;;20.28;100.00;99520.41;5033012;28;929;-58
2023/11/01 08:43:02;;;;;;;;;;;;;;;20.24;100.00;99517.00;5033087;28;939;-58
2023/11/01 08:45:28;;;;;;;;;;;;;;;20.66;100.00;99527.38;5032927;28;906;-58
2023/11/01 08:47:55;;;;;;;;;;;;;;;20.72;100.00;99533.88;5033026;28;882;-58
2023/11/01 09:21:52;;;;;;;;;;;;;;;23.00;100.00;99508.41;5743685;23;1690;-68
2023/11/01 09:24:20;;;;;;;;;;;;;;;23.41;100.00;99504.69;4973604;28;846;-66
2023/11/01 09:26:46;;;;;;;;;;;;;;;23.91;100.00;99506.41;4973528;28;889;-67
2023/11/01 09:29:13;;;;;;;;;;;;;;;24.05;95.08;99503.44;4973438;28;854;-66
2023/11/01 09:31:40;;;;;;;;;;;;;;;24.02;81.54;99509.28;4972140;28;1248;-67
2023/11/01 09:34:06;;;;;;;;;;;;;;;23.94;80.32;99505.38;4973405;28;839;-66
2023/11/01 09:36:35;;;;;;;;;;;;;;;23.73;80.22;99518.81;4973252;28;1976;-66
2023/11/01 09:39:03;;;;;;;;;;;;;;;23.68;80.29;99511.84;4973249;28;863;-66
2023/11/01 09:41:34;;;;;;;;;;;;;;;23.66;79.66;99508.75;4973395;28;885;-65
2023/11/01 09:44:01;;;;;;;;;;;;;;;23.42;80.06;99515.47;4973286;28;1289;-66
2023/11/01 09:46:28;;;;;;;;;;;;;;;23.09;80.52;99504.63;4973495;28;1161;-66
2023/11/01 09:48:55;;;;;;;;;;;;;;;22.92;81.31;99507.25;4973239;28;1391;-66
2023/11/01 09:51:23;;;;;;;;;;;;;;;22.98;81.43;99513.72;4973437;28;1286;-66
2023/11/01 09:53:50;;;;;;;;;;;;;;;22.86;81.75;99511.28;4973401;28;830;-66
2023/11/01 09:56:20;;;;;;;;;;;;;;;22.73;82.75;99503.94;4973320;28;1898;-65
2023/11/01 09:58:46;;;;;;;;;;;;;;;22.33;85.28;99499.09;4973095;28;866;-66
2023/11/01 10:01:13;;;;;;;;;;;;;;;22.24;86.74;99502.03;4973110;28;834;-66
2023/11/01 10:03:40;;;;;;;;;;;;;;;22.48;86.41;99499.03;4973185;28;906;-65
2023/11/01 10:06:07;;;;;;;;;;;;;;;22.98;85.37;99502.44;4973066;28;847;-65
2023/11/01 10:08:34;;;;;;;;;;;;;;;23.23;82.05;99505.78;4971743;28;2042;-66
2023/11/01 10:11:02;;;;;;;;;;;;;;;23.42;81.70;99495.72;4973037;28;909;-66
2023/11/01 10:13:30;;;;;;;;;;;;;;;23.63;81.06;99502.06;4973111;28;904;-66
2023/11/01 10:15:56;;;;;;;;;;;;;;;23.60;80.42;99496.66;4972981;28;858;-66
2023/11/01 10:18:23;;;;;;;;;;;;;;;23.59;79.59;99500.75;4972908;28;1957;-66
2023/11/01 10:20:49;;;;;;;;;;;;;;;23.59;79.78;99495.88;4972829;28;897;-66
2023/11/01 10:23:18;;;;;;;;;;;;;;;23.71;78.91;99488.28;4997425;28;1443;-66
2023/11/01 10:25:45;;;;;;;;;;;;;;;23.83;77.53;99494.78;5011882;28;889;-66
2023/11/01 10:28:14;;;;;;;;;;;;;;;23.69;76.85;99493.66;5014593;28;843;-67
2023/11/01 10:30:44;;;;;;;;;;;;;;;23.60;77.29;99485.38;5015899;28;862;-67
2023/11/01 10:33:13;;;;;;;;;;;;;;;23.78;76.44;99490.66;5015920;28;816;-66
2023/11/01 10:35:39;;;;;;;;;;;;;;;23.47;77.32;99485.78;5015703;28;889;-66
2023/11/01 10:38:07;;;;;;;;;;;;;;;23.12;78.16;99488.78;5015484;28;1984;-66
2023/11/01 10:40:36;;;;;;;;;;;;;;;23.06;78.55;99490.75;5015646;28;837;-66
2023/11/01 10:43:03;;;;;;;;;;;;;;;23.29;78.55;99486.13;5015430;28;840;-66
2023/11/01 10:45:29;;;;;;;;;;;;;;;23.58;77.39;99490.75;5015438;28;839;-66
2023/11/01 10:47:56;;;;;;;;;;;;;;;23.72;72.11;99489.81;5015723;28;818;-66
2023/11/01 10:50:23;;;;;;;;;;;;;;;23.67;69.36;99482.09;5015233;28;807;-66
2023/11/01 10:52:49;;;;;;;;;;;;;;;23.87;59.06;99478.41;5015422;28;823;-66
2023/11/01 10:55:17;;;;;;;;;;;;;;;24.13;55.86;99475.50;5015184;28;854;-66
2023/11/01 10:57:42;;;;;;;;;;;;;;;24.74;49.52;99477.06;5015218;28;1981;-65
2023/11/01 11:00:12;;;;;;;;;;;;;;;25.18;47.00;99477.72;5015188;28;815;-66
2023/11/01 11:02:43;;;;;;;;;;;;;;;25.25;44.83;99478.00;5015508;28;965;-66
2023/11/01 11:05:16;;;;;;;;;;;;;;;24.88;43.67;99481.00;5015145;28;890;-66
2023/11/01 11:07:50;;;;;;;;;;;;;;;24.34;44.44;99478.16;5015128;28;877;-68
2023/11/01 11:10:29;;;;;;;;;;;;;;;23.67;45.79;99479.25;5015058;28;862;-68
2023/11/01 11:13:13;;;;;;;;;;;;;;;23.30;46.87;99477.19;5015116;28;860;-67
2023/11/01 11:15:56;;;;;;;;;;;;;;;23.34;46.86;99482.56;5015262;28;798;-67
2023/11/01 11:18:22;;;;;;;;;;;;;;;24.03;45.74;99474.16;5014788;28;1953;-66
2023/11/01 11:20:50;;;;;;;;;;;;;;;24.70;44.99;99468.06;5014780;28;951;-66
2023/11/01 11:23:17;;;;;;;;;;;;;;;25.22;43.91;99470.53;5014469;28;1277;-66
2023/11/01 11:25:45;;;;;;;;;;;;;;;25.62;42.04;99459.22;5014845;28;889;-67
2023/11/01 11:28:32;;;;;;;;;;;;;;;26.12;41.29;99449.13;4997040;28;1316;-67
2023/11/01 11:31:05;;;;;;;;;;;;;;;26.73;39.03;99462.31;5014668;28;1259;-67
2023/11/01 11:33:33;;;;;;;;;;;;;;;26.24;37.84;99451.44;5014558;28;1115;-65
2023/11/01 11:36:16;;;;;;;;;;;;;;;25.93;37.54;99446.88;5014508;28;819;-66
2023/11/01 11:38:50;;;;;;;;;;;;;;;25.50;36.73;99449.97;5013141;28;826;-69
2023/11/01 11:41:17;;;;;;;;;;;;;;;25.65;37.46;99458.22;5014859;28;1261;-68
2023/11/01 11:44:01;;;;;;;;;;;;;;;26.26;37.55;99445.97;5014537;28;866;-69
2023/11/01 11:46:30;;;;;;;;;;;;;;;26.72;36.18;99452.28;4996909;28;1208;-67
2023/11/01 11:48:58;;;;;;;;;;;;;;;26.92;35.76;99444.69;5014215;28;905;-67
2023/11/01 11:51:25;;;;;;;;;;;;;;;26.59;34.41;99447.19;5014205;28;842;-67
2023/11/01 11:53:51;;;;;;;;;;;;;;;26.36;35.13;99440.81;5014242;28;811;-67
2023/11/01 11:56:27;;;;;;;;;;;;;;;26.20;35.38;99439.59;5014074;28;1947;-67
2023/11/01 11:58:53;;;;;;;;;;;;;;;26.27;35.80;99446.78;5014130;28;831;-67
2023/11/01 12:01:37;;;;;;;;;;;;;;;26.31;35.39;99438.00;5014039;28;882;-67
2023/11/01 12:04:07;;;;;;;;;;;;;;;25.50;35.88;99443.53;5014180;28;886;-68
2023/11/01 12:06:41;;;;;;;;;;;;;;;25.64;36.33;99439.66;5013875;28;1335;-68
2023/11/01 12:09:22;;;;;;;;;;;;;;;26.08;36.14;99444.50;5014189;28;850;-67
2023/11/01 12:11:50;;;;;;;;;;;;;;;26.51;34.84;99445.41;5013915;28;889;-68
2023/11/01 12:14:18;;;;;;;;;;;;;;;26.60;35.11;99445.88;5013804;28;878;-68
2023/11/01 12:16:45;;;;;;;;;;;;;;;26.80;35.19;99443.97;5013691;28;1945;-67
2023/11/01 12:19:18;;;;;;;;;;;;;;;26.81;34.56;99445.53;5013584;28;811;-68
2023/11/01 12:21:49;;;;;;;;;;;;;;;26.83;34.69;99448.59;5013885;28;921;-67
2023/11/01 12:24:16;;;;;;;;;;;;;;;27.28;34.03;99442.66;4974710;28;831;-67
2023/11/01 12:26:59;;;;;;;;;;;;;;;27.23;33.23;99449.16;4974812;28;811;-68
2023/11/01 12:29:44;;;;;;;;;;;;;;;27.18;32.59;99441.41;4974570;28;882;-68
2023/11/01 12:32:15;;;;;;;;;;;;;;;27.34;32.69;99439.78;4974562;28;885;-67
2023/11/01 12:34:48;;;;;;;;;;;;;;;27.78;31.93;99444.28;4974443;28;883;-65
2023/11/01 12:37:14;;;;;;;;;;;;;;;27.74;31.74;99431.66;4974291;28;1967;-67
2023/11/01 12:39:59;;;;;;;;;;;;;;;27.25;31.93;99438.81;4974298;28;807;-67
2023/11/01 12:42:27;;;;;;;;;;;;;;;26.95;32.75;99444.41;4974628;28;917;-67
2023/11/01 12:44:55;;;;;;;;;;;;;;;27.08;32.72;99446.66;4974279;28;803;-68
2023/11/01 12:47:22;;;;;;;;;;;;;;;27.44;32.81;99444.59;4973023;28;1287;-67
2023/11/01 12:49:50;;;;;;;;;;;;;;;27.60;32.03;99440.06;4973816;28;783;-67
2023/11/01 12:52:17;;;;;;;;;;;;;;;27.47;32.22;99446.34;4974140;28;974;-68
2023/11/01 12:54:44;;;;;;;;;;;;;;;27.54;31.99;99447.09;4974040;28;870;-67
2023/11/01 12:57:13;;;;;;;;;;;;;;;27.67;32.27;99442.31;4973964;28;1961;-66
2023/11/01 12:59:41;;;;;;;;;;;;;;;28.12;31.92;99449.63;4974244;28;886;-66
2023/11/01 13:02:08;;;;;;;;;;;;;;;27.99;31.78;99455.97;4974016;28;807;-67
2023/11/01 13:04:36;;;;;;;;;;;;;;;26.93;32.98;99454.72;4974222;28;821;-66
2023/11/01 13:07:03;;;;;;;;;;;;;;;26.25;32.50;99447.28;4974010;28;905;-66
2023/11/01 13:09:30;;;;;;;;;;;;;;;26.38;32.52;99454.47;4974092;28;810;-67
2023/11/01 13:11:57;;;;;;;;;;;;;;;26.58;32.24;99442.78;4988881;28;1245;-66
2023/11/01 13:14:23;;;;;;;;;;;;;;;26.83;32.61;99442.94;4972656;28;1420;-66
2023/11/01 13:16:50;;;;;;;;;;;;;;;26.85;32.02;99429.75;4973885;28;1957;-67
2023/11/01 13:19:17;;;;;;;;;;;;;;;26.65;32.04;99445.09;4973896;28;870;-68
2023/11/01 13:21:42;;;;;;;;;;;;;;;26.30;33.84;99444.97;4974188;28;992;-67
2023/11/01 13:24:09;;;;;;;;;;;;;;;26.05;34.33;99444.78;5012029;28;1289;-67
2023/11/01 13:26:38;;;;;;;;;;;;;;;26.09;34.61;99442.44;5012508;28;1567;-67
2023/11/01 13:29:04;;;;;;;;;;;;;;;25.30;35.86;99447.41;5012696;28;932;-68
2023/11/01 13:31:31;;;;;;;;;;;;;;;24.41;37.44;99453.06;5012526;28;1174;-67